Arthur City, Texas
Current Conditions -  °F | °C
As of 4:35 AM on Thursday 27 Nov 2014 (Local Time) from KHHW Reporting Station
Clear Clear  
Wind Chill: 30°   Ceiling: Unl
Heat Index: 35°   Visibility: 10mi
Dew Point: 26°   Wind: 6mph
Humidity: 69%   Direction: 290°WNW
Pressure: 30.49"   Gusts: NA
Location:  33.87°N, 95.51°W
Report Text: KHHW 271035Z AUTO 29005KT 10SM CLR 02/M03 A3049 RMK AO2 T00171035
Loading
Personal Weather Stations






























Interactive Weather Map New forecast layout! Learn more

10-Day Weather Forecast

Advertisements
Track Severe Weather on mobile